Latest Weather Observations for Townsville

IDQ60801

Issued at 10:02 am EST Monday 29 May 2017 (issued every 30 minutes, with the page automatically refreshed every 10 minutes)

About weather observations | Map of weather stations | Latest weather observations for QLD | Other Formats
Station Details ID: 032040 Name: TOWNSVILLE AERO Lat: -19.25 Lon: 146.77 Height: 4.34 m
Data from the previous 72 hours. | See also: Recent months at Townsville
Date/Time
EST
Temp
°C
App
Temp
°C
Dew
Point
°C
Rel
Hum
%
Delta-T
°C
Wind Press
QNH
hPa
Press
MSL
hPa
Rain since
9am
mm
Dir  Spd
km/h
Gust
km/h
Spd
kts
Gust
kts
29/09:30am 23.8 25.0 18.2 71 3.5 SSW 9 13 5 7 1019.2 1019.2 0.0
29/09:00am 22.9 26.2 19.1 79 2.4 CALM 0 0 0 0 1019.2 1019.2 0.0
29/08:30am 21.4 24.7 19.2 87 1.4 CALM 0 0 0 0 1018.7 1018.7 0.0
29/08:00am 20.0 22.7 18.7 92 0.8 SSE 2 6 1 3 1018.4 1018.4 0.0
29/07:30am 18.9 21.8 18.1 95 0.5 CALM 0 9 0 5 1018.1 1018.1 0.0
29/07:20am 18.5 20.8 17.7 95 0.5 S 2 7 1 4 1018.1 1018.1 0.0
29/07:00am 17.8 19.2 17.3 97 0.3 SE 6 9 3 5 1017.6 1017.6 0.0
29/06:30am 17.7 20.2 17.2 97 0.3 CALM 0 0 0 0 1017.7 1017.7 0.0
29/06:00am 17.9 20.5 17.4 97 0.3 CALM 0 0 0 0 1017.2 1017.2 0.0
29/05:43am 17.8 20.2 17.1 96 0.4 CALM 0 0 0 0 1017.2 1017.2 0.0
29/05:30am 17.8 19.9 17.1 96 0.4 SSE 2 7 1 4 1017.0 1017.0 0.0
29/05:07am 18.0 19.4 17.7 98 0.2 NW 7 7 4 4 1017.1 1017.1 0.0
29/05:00am 17.7 19.1 17.4 98 0.2 NW 6 7 3 4 1017.0 1017.0 0.0
29/04:53am 18.1 19.7 17.8 98 0.2 NW 6 7 3 4 1016.9 1016.9 0.0
29/04:40am 18.0 19.4 17.7 98 0.2 NW 7 7 4 4 1016.8 1016.8 0.0
29/04:30am 18.0 19.6 17.8 99 0.1 NW 6 7 3 4 1016.7 1016.7 0.0
29/04:08am 18.1 20.7 17.6 97 0.3 CALM 0 0 0 0 1016.7 1016.7 0.0
29/04:00am 18.1 20.8 17.8 98 0.2 CALM 0 0 0 0 1016.7 1016.7 0.0
29/03:30am 17.4 19.1 17.2 99 0.1 WNW 4 7 2 4 1016.6 1016.6 0.0
29/03:29am 17.5 19.3 17.3 99 0.1 WNW 4 7 2 4 1016.6 1016.6 0.0
29/03:04am 18.1 20.8 17.8 98 0.2 CALM 0 0 0 0 1017.0 1017.0 0.0
29/03:00am 18.3 21.0 17.8 97 0.3 CALM 0 0 0 0 1017.0 1017.0 0.0
29/02:30am 18.6 21.5 18.1 97 0.3 CALM 0 0 0 0 1017.0 1017.0 0.0
29/02:00am 18.2 20.9 17.7 97 0.3 CALM 0 0 0 0 1017.1 1017.1 0.0
29/01:30am 18.7 21.5 18.0 96 0.4 CALM 0 0 0 0 1017.3 1017.3 0.0
29/01:00am 18.9 21.9 18.4 97 0.3 CALM 0 0 0 0 1017.6 1017.6 0.0
29/12:30am 18.5 21.3 18.0 97 0.3 CALM 0 0 0 0 1017.8 1017.8 0.0
29/12:00am 19.6 22.8 18.8 95 0.5 CALM 0 0 0 0 1017.9 1017.9 0.0
 
Date/Time
EST
Temp
°C
App
Temp
°C
Dew
Point
°C
Rel
Hum
%
Delta-T
°C
Wind Press
QNH
hPa
Press
MSL
hPa
Rain since
9am
mm
Dir  Spd
km/h
Gust
km/h
Spd
kts
Gust
kts
28/11:30pm 20.4 23.7 19.1 92 0.8 CALM 0 0 0 0 1018.1 1018.1 0.0
28/11:00pm 19.8 23.0 18.8 94 0.6 CALM 0 0 0 0 1018.3 1018.3 0.0
28/10:30pm 20.7 24.0 19.1 90 1.0 CALM 0 0 0 0 1018.4 1018.4 0.0
28/10:00pm 21.1 23.8 19.4 90 1.1 SSE 4 7 2 4 1018.4 1018.4 0.0
28/09:30pm 20.9 23.0 19.3 90 1.0 SE 7 7 4 4 1018.2 1018.2 0.0
28/09:26pm 20.7 22.6 18.9 89 1.1 SE 7 7 4 4 1018.1 1018.1 0.0
28/09:12pm 21.6 25.1 19.6 88 1.3 CALM 0 0 0 0 1018.1 1018.1 0.0
28/09:00pm 21.3 24.1 19.6 90 1.1 ESE 4 7 2 4 1018.0 1018.0 0.0
28/08:30pm 21.6 23.8 19.6 88 1.3 E 7 7 4 4 1017.7 1017.7 0.0
28/08:00pm 21.8 23.9 19.4 86 1.5 E 7 9 4 5 1017.4 1017.4 0.0
28/07:30pm 21.8 23.5 19.3 86 1.6 E 9 11 5 6 1017.0 1017.0 0.0
28/07:00pm 22.0 23.3 19.3 85 1.7 ENE 11 15 6 8 1016.6 1016.6 0.0
28/06:30pm 22.3 23.9 19.1 82 2.0 ENE 9 13 5 7 1016.2 1016.2 0.0
28/06:00pm 22.6 23.0 19.0 80 2.3 ENE 15 17 8 9 1015.9 1015.9 0.0
28/05:30pm 23.4 24.1 18.8 75 2.9 ENE 13 17 7 9 1015.7 1015.7 0.0
28/05:00pm 24.4 24.8 19.1 72 3.4 ENE 15 19 8 10 1015.3 1015.3 0.0
28/04:30pm 24.7 24.9 19.4 72 3.4 ENE 17 22 9 12 1015.0 1015.0 0.0
28/04:00pm 25.1 24.6 20.0 73 3.3 NE 22 28 12 15 1015.0 1015.0 0.0
28/03:30pm 25.2 24.1 19.4 70 3.7 NE 24 30 13 16 1014.9 1014.9 0.0
28/03:00pm 25.5 25.1 19.3 68 4.0 ENE 20 26 11 14 1015.0 1015.0 0.0
28/02:30pm 26.1 24.8 17.3 58 5.5 NE 20 26 11 14 1015.2 1015.2 0.0
28/02:00pm 26.4 25.6 18.4 61 5.1 NE 20 24 11 13 1015.4 1015.4 0.0
28/01:30pm 26.3 25.6 18.6 62 4.9 NE 20 28 11 15 1015.6 1015.6 0.0
28/01:00pm 26.6 25.7 18.2 60 5.3 ENE 20 24 11 13 1016.0 1016.0 0.0
28/12:30pm 26.7 26.1 18.5 60 5.2 NE 19 24 10 13 1016.4 1016.4 0.0
28/12:00pm 26.1 26.7 17.6 59 5.3 E 11 17 6 9 1016.9 1016.9 0.0
28/11:30am 25.5 26.2 17.1 59 5.2 ESE 9 15 5 8 1017.2 1017.2 0.0
28/11:00am 25.9 26.3 17.2 58 5.4 E 11 15 6 8 1017.4 1017.4 0.0
28/10:30am 25.2 25.6 18.2 65 4.4 SSE 13 19 7 10 1017.8 1017.8 0.0
28/10:00am 24.6 24.7 18.4 68 3.9 SSE 15 20 8 11 1018.0 1018.0 0.0
28/09:30am 23.6 24.8 18.3 72 3.3 ESE 9 13 5 7 1017.9 1017.9 0.0
28/09:00am 22.9 25.5 18.3 75 2.9 WSW 2 7 1 4 1017.9 1017.9 0.0
28/08:30am 22.0 25.1 18.7 81 2.1 CALM 0 0 0 0 1017.6 1017.6 0.0
28/08:00am 19.9 23.0 18.6 92 0.8 CALM 0 0 0 0 1017.4 1017.4 0.0
28/07:30am 18.6 21.4 17.9 96 0.4 CALM 0 0 0 0 1017.2 1017.2 0.0
28/07:22am 18.3 20.9 17.6 96 0.4 CALM 0 0 0 0 1017.2 1017.2 0.0
28/07:00am 17.8 20.4 17.5 98 0.2 CALM 0 0 0 0 1017.0 1017.0 0.0
28/06:30am 17.5 20.0 17.2 98 0.2 CALM 0 0 0 0 1016.7 1016.7 0.0
28/06:00am 17.6 20.0 17.1 97 0.3 CALM 0 0 0 0 1016.5 1016.5 0.0
28/05:35am 17.8 20.4 17.5 98 0.2 CALM 0 0 0 0 1016.4 1016.4 0.0
28/05:30am 17.8 20.4 17.5 98 0.2 CALM 0 0 0 0 1016.5 1016.5 0.0
28/05:15am 17.6 20.1 17.3 98 0.2 CALM 0 0 0 0 1016.4 1016.4 0.0
28/05:00am 17.8 20.3 17.3 97 0.3 CALM 0 0 0 0 1016.5 1016.5 0.0
28/04:30am 17.7 20.2 17.2 97 0.3 CALM 0 0 0 0 1016.4 1016.4 0.0
28/04:00am 18.0 20.7 17.7 98 0.2 CALM 0 0 0 0 1016.5 1016.5 0.0
28/03:30am 18.3 21.1 18.0 98 0.2 CALM 0 0 0 0 1016.7 1016.7 0.0
28/03:00am 18.4 21.3 18.2 99 0.1 CALM 0 0 0 0 1016.9 1016.9 0.0
28/02:30am 18.7 21.5 18.0 96 0.4 CALM 0 0 0 0 1017.0 1017.0 0.0
28/02:00am 18.8 21.7 18.2 96 0.4 CALM 0 0 0 0 1017.5 1017.5 0.0
28/01:30am 18.5 21.3 18.0 97 0.3 CALM 0 0 0 0 1017.8 1017.8 0.0
28/01:00am 18.4 19.8 17.7 96 0.4 SW 7 9 4 5 1018.0 1018.0 0.0
28/12:30am 19.1 22.1 18.5 96 0.4 CALM 0 0 0 0 1018.0 1018.0 0.0
28/12:00am 19.4 22.6 18.8 96 0.4 CALM 0 0 0 0 1018.1 1018.1 0.0
 
Date/Time
EST
Temp
°C
App
Temp
°C
Dew
Point
°C
Rel
Hum
%
Delta-T
°C
Wind Press
QNH
hPa
Press
MSL
hPa
Rain since
9am
mm
Dir  Spd
km/h
Gust
km/h
Spd
kts
Gust
kts
27/11:30pm 19.6 22.9 19.0 96 0.4 CALM 0 2 0 1 1018.2 1018.2 0.0
27/11:00pm 19.7 21.7 19.1 96 0.4 S 7 9 4 5 1018.3 1018.3 0.0
27/10:30pm 19.3 21.6 18.5 95 0.5 SE 4 7 2 4 1018.3 1018.3 0.0
27/10:00pm 20.2 22.1 18.9 92 0.8 SE 7 9 4 5 1018.2 1018.2 0.0
27/09:30pm 21.2 23.0 19.5 90 1.1 SE 9 11 5 6 1018.1 1018.1 0.0
27/09:00pm 21.6 23.8 19.6 88 1.3 SE 7 11 4 6 1018.0 1018.0 0.0
27/08:30pm 21.8 24.0 19.6 87 1.4 SE 7 9 4 5 1017.9 1017.9 0.0
27/08:00pm 21.9 24.0 19.4 86 1.6 SE 7 9 4 5 1017.8 1017.8 0.0
27/07:30pm 22.0 23.5 18.8 82 2.0 ESE 9 11 5 6 1017.4 1017.4 0.0
27/07:00pm 21.7 23.1 18.7 83 1.9 SE 9 11 5 6 1017.1 1017.1 0.0
27/06:30pm 22.4 23.7 19.4 83 1.9 E 11 15 6 8 1016.7 1016.7 0.0
27/06:00pm 22.9 23.0 19.1 79 2.4 ENE 17 22 9 12 1016.3 1016.3 0.0
27/05:30pm 23.2 23.0 19.4 79 2.4 ENE 19 24 10 13 1016.1 1016.1 0.0
27/05:00pm 24.0 23.9 19.5 76 2.9 ENE 19 26 10 14 1015.8 1015.8 0.0
27/04:30pm 24.6 24.4 19.3 72 3.4 ENE 19 24 10 13 1015.5 1015.5 0.0
27/04:00pm 24.9 24.3 18.9 69 3.8 ENE 20 26 11 14 1015.5 1015.5 0.0
27/03:30pm 25.2 24.6 18.9 68 4.0 ENE 20 28 11 15 1015.5 1015.5 0.0
27/03:00pm 25.8 24.8 18.0 62 4.9 ENE 20 26 11 14 1015.5 1015.5 0.0
27/02:30pm 25.6 23.9 16.3 56 5.7 ENE 20 28 11 15 1015.5 1015.5 0.0
27/02:00pm 25.9 24.6 16.9 57 5.6 NE 19 26 10 14 1015.6 1015.6 0.0
27/01:30pm 26.2 24.5 15.7 52 6.4 ENE 19 26 10 14 1015.9 1015.9 0.0
27/01:00pm 26.1 24.7 15.6 52 6.4 E 17 24 9 13 1016.3 1016.3 0.0
27/12:30pm 26.1 24.7 16.5 55 5.9 ENE 19 28 10 15 1016.9 1016.9 0.0
27/12:00pm 25.8 24.5 16.9 58 5.5 ENE 19 28 10 15 1017.1 1017.1 0.0
27/11:30am 25.6 22.9 16.5 57 5.6 ENE 26 33 14 18 1017.7 1017.7 0.0
27/11:00am 25.4 25.3 17.0 59 5.2 SE 13 20 7 11 1017.9 1017.9 0.0
27/10:30am 24.2 24.3 16.5 62 4.7 ESE 11 20 6 11 1018.3 1018.3 0.0
27/10:00am 24.3 24.3 16.3 61 4.9 SE 11 15 6 8 1018.5 1018.5 0.0
27/09:30am 23.5 23.5 15.3 60 4.9 SE 9 13 5 7 1018.6 1018.6 0.0
27/09:00am 22.2 22.4 15.7 66 3.9 SSE 9 11 5 6 1018.5 1018.5 0.0
27/08:30am 20.3 20.8 17.4 83 1.8 SSE 11 13 6 7 1018.3 1018.3 0.0
27/08:00am 18.2 20.6 16.9 92 0.8 CALM 0 0 0 0 1018.1 1018.1 0.0
27/07:30am 17.8 18.9 16.6 93 0.7 WNW 6 7 3 4 1017.8 1017.8 0.0
27/07:00am 16.5 17.6 15.6 94 0.5 WNW 4 7 2 4 1017.6 1017.6 0.0
27/06:30am 17.0 18.6 16.0 94 0.6 S 2 9 1 5 1017.2 1017.2 0.0
27/06:00am 18.0 18.7 16.1 89 1.1 S 7 9 4 5 1016.9 1016.9 0.0
27/05:30am 17.4 17.7 16.0 91 0.8 SSE 9 11 5 6 1016.7 1016.7 0.0
27/05:00am 16.4 18.2 15.4 94 0.6 CALM 0 0 0 0 1016.5 1016.5 0.0
27/04:30am 16.6 18.4 15.6 94 0.6 CALM 0 0 0 0 1016.6 1016.6 0.0
27/04:00am 17.0 17.6 15.8 93 0.7 N 7 7 4 4 1016.6 1016.6 0.0
27/03:30am 17.2 19.2 16.0 93 0.7 CALM 0 0 0 0 1016.7 1016.7 0.0
27/03:00am 17.3 19.2 15.8 91 0.9 CALM 0 0 0 0 1016.8 1016.8 0.0
27/02:30am 16.9 18.6 15.2 90 1.0 CALM 0 0 0 0 1017.0 1017.0 0.0
27/02:00am 16.9 18.7 15.4 91 0.9 CALM 0 0 0 0 1017.3 1017.3 0.0
27/01:30am 17.5 19.4 15.8 90 1.0 CALM 0 0 0 0 1017.2 1017.2 0.0
27/01:00am 17.7 17.9 15.7 88 1.2 NW 9 11 5 6 1017.7 1017.7 0.0
27/12:30am 19.4 20.5 16.7 84 1.6 SW 6 7 3 4 1017.6 1017.6 0.0
27/12:00am 19.3 20.2 16.6 84 1.6 SW 7 9 4 5 1017.7 1017.7 0.0
 
Date/Time
EST
Temp
°C
App
Temp
°C
Dew
Point
°C
Rel
Hum
%
Delta-T
°C
Wind Press
QNH
hPa
Press
MSL
hPa
Rain since
9am
mm
Dir  Spd
km/h
Gust
km/h
Spd
kts
Gust
kts
26/11:30pm 20.3 20.2 15.9 76 2.6 SSW 11 13 6 7 1017.8 1017.8 0.0
26/11:00pm 20.2 19.7 16.0 77 2.5 SE 13 15 7 8 1017.7 1017.7 0.0
26/10:30pm 20.7 20.1 15.7 73 3.0 SE 13 15 7 8 1017.8 1017.8 0.0
26/10:00pm 21.2 20.6 15.7 71 3.3 SE 13 15 7 8 1017.8 1017.8 0.0
26/09:30pm 20.7 20.4 16.4 76 2.6 SE 13 15 7 8 1017.9 1017.9 0.0
26/09:00pm 21.0 21.7 17.1 78 2.4 SE 9 11 5 6 1017.8 1017.8 0.0
26/08:30pm 21.2 22.0 17.3 78 2.4 SE 9 9 5 5 1017.7 1017.7 0.0
26/08:00pm 21.0 21.8 17.2 79 2.3 SSE 9 9 5 5 1017.3 1017.3 0.0
26/07:30pm 21.9 22.7 17.2 74 2.9 ESE 9 9 5 5 1017.0 1017.0 0.0
26/07:00pm 22.2 22.8 16.8 71 3.3 E 9 13 5 7 1016.8 1016.8 0.0
26/06:30pm 22.2 22.1 15.9 67 3.8 E 11 13 6 7 1016.3 1016.3 0.0
26/06:00pm 22.7 22.3 15.3 63 4.4 E 11 15 6 8 1015.9 1015.9 0.0
26/05:30pm 23.8 22.8 14.7 56 5.4 ESE 13 17 7 9 1015.8 1015.8 0.0
26/05:00pm 25.4 23.0 12.6 45 7.4 E 17 24 9 13 1015.4 1015.4 0.0
26/04:30pm 26.2 22.8 10.7 37 8.7 ENE 19 26 10 14 1015.3 1015.3 0.0
26/04:00pm 26.5 24.7 14.5 47 7.2 ENE 17 24 9 13 1015.2 1015.2 0.0
26/03:30pm 26.4 23.8 13.3 44 7.7 ENE 19 24 10 13 1015.3 1015.3 0.0
26/03:00pm 25.9 24.9 15.5 52 6.3 NE 15 22 8 12 1015.5 1015.5 0.0
26/02:30pm 26.0 25.3 17.3 58 5.4 ENE 17 24 9 13 1015.7 1015.7 0.0
26/02:00pm 26.4 25.8 17.6 58 5.5 NE 17 22 9 12 1016.0 1016.0 0.0
26/01:30pm 26.8 26.0 17.0 55 6.1 NE 17 22 9 12 1016.4 1016.4 0.0
26/01:00pm 26.5 26.1 18.1 60 5.3 ENE 17 24 9 13 1016.9 1016.9 0.0
26/12:30pm 26.5 25.6 17.8 58 5.5 NE 19 28 10 15 1017.3 1017.3 0.0
26/12:00pm 25.8 25.4 18.0 62 4.9 NE 17 24 9 13 1017.7 1017.7 0.0
26/11:30am 25.6 25.2 18.0 63 4.8 NE 17 24 9 13 1018.0 1018.0 0.0
26/11:00am 25.4 25.2 17.7 62 4.8 ENE 15 20 8 11 1017.9 1017.9 0.0
26/10:30am 25.5 26.1 18.6 65 4.4 SE 13 19 7 10 1018.3 1018.3 0.0

Other Formats:

Comma delimited format used in spreadsheet applications
http://www.bom.gov.au/fwo/IDQ60801/IDQ60801.94294.axf

JavaScript Object Notation format (JSON) in row-major order
http://www.bom.gov.au/fwo/IDQ60801/IDQ60801.94294.json